sensor_id;sensor_type;location;lat;lon;timestamp;P1;durP1;ratioP1;P2;durP2;ratioP2
45296;SDS011;31040;51.622;10.420;2023-12-20T00:01:08;4.70;;;3.55;;
45296;SDS011;31040;51.622;10.420;2023-12-20T00:03:36;3.88;;;3.38;;
45296;SDS011;31040;51.622;10.420;2023-12-20T00:06:08;4.63;;;3.50;;
45296;SDS011;31040;51.622;10.420;2023-12-20T00:08:36;4.40;;;3.85;;
45296;SDS011;31040;51.622;10.420;2023-12-20T00:11:03;4.57;;;3.70;;
45296;SDS011;31040;51.622;10.420;2023-12-20T00:13:31;4.85;;;3.60;;
45296;SDS011;31040;51.622;10.420;2023-12-20T00:15:58;4.43;;;3.90;;
45296;SDS011;31040;51.622;10.420;2023-12-20T00:18:26;5.55;;;4.20;;
45296;SDS011;31040;51.622;10.420;2023-12-20T00:20:53;5.75;;;4.18;;
45296;SDS011;31040;51.622;10.420;2023-12-20T00:23:21;5.15;;;4.20;;
45296;SDS011;31040;51.622;10.420;2023-12-20T00:25:49;4.90;;;4.28;;
45296;SDS011;31040;51.622;10.420;2023-12-20T00:28:17;6.30;;;4.97;;
45296;SDS011;31040;51.622;10.420;2023-12-20T00:30:44;6.55;;;4.70;;
45296;SDS011;31040;51.622;10.420;2023-12-20T00:33:12;5.88;;;4.55;;
45296;SDS011;31040;51.622;10.420;2023-12-20T00:35:40;5.72;;;4.30;;
45296;SDS011;31040;51.622;10.420;2023-12-20T00:38:07;5.32;;;4.38;;
45296;SDS011;31040;51.622;10.420;2023-12-20T00:40:35;7.32;;;4.43;;
45296;SDS011;31040;51.622;10.420;2023-12-20T00:43:03;5.03;;;4.20;;
45296;SDS011;31040;51.622;10.420;2023-12-20T00:45:30;5.75;;;4.65;;
45296;SDS011;31040;51.622;10.420;2023-12-20T00:47:57;5.15;;;4.03;;
45296;SDS011;31040;51.622;10.420;2023-12-20T00:50:25;6.20;;;4.65;;
45296;SDS011;31040;51.622;10.420;2023-12-20T00:52:55;5.15;;;3.95;;
45296;SDS011;31040;51.622;10.420;2023-12-20T00:55:23;6.50;;;4.57;;
45296;SDS011;31040;51.622;10.420;2023-12-20T00:57:51;5.95;;;4.90;;
45296;SDS011;31040;51.622;10.420;2023-12-20T01:00:19;5.43;;;4.60;;
45296;SDS011;31040;51.622;10.420;2023-12-20T01:02:48;6.47;;;4.68;;
45296;SDS011;31040;51.622;10.420;2023-12-20T01:05:18;7.25;;;5.22;;
45296;SDS011;31040;51.622;10.420;2023-12-20T01:07:46;8.23;;;5.32;;
45296;SDS011;31040;51.622;10.420;2023-12-20T01:10:13;5.78;;;5.00;;
45296;SDS011;31040;51.622;10.420;2023-12-20T01:12:41;6.90;;;5.30;;
45296;SDS011;31040;51.622;10.420;2023-12-20T01:15:08;7.53;;;4.97;;
45296;SDS011;31040;51.622;10.420;2023-12-20T01:17:36;6.93;;;4.40;;
45296;SDS011;31040;51.622;10.420;2023-12-20T01:20:03;7.00;;;4.55;;
45296;SDS011;31040;51.622;10.420;2023-12-20T01:22:31;6.47;;;4.60;;
45296;SDS011;31040;51.622;10.420;2023-12-20T01:24:59;7.47;;;5.28;;
45296;SDS011;31040;51.622;10.420;2023-12-20T01:27:26;7.30;;;5.25;;
45296;SDS011;31040;51.622;10.420;2023-12-20T01:29:54;5.75;;;4.20;;
45296;SDS011;31040;51.622;10.420;2023-12-20T01:32:21;7.72;;;4.68;;
45296;SDS011;31040;51.622;10.420;2023-12-20T01:34:48;7.13;;;5.05;;
45296;SDS011;31040;51.622;10.420;2023-12-20T01:37:16;8.27;;;5.43;;
45296;SDS011;31040;51.622;10.420;2023-12-20T01:39:44;7.20;;;5.28;;
45296;SDS011;31040;51.622;10.420;2023-12-20T01:42:12;6.70;;;5.43;;
45296;SDS011;31040;51.622;10.420;2023-12-20T01:44:39;7.55;;;6.03;;
45296;SDS011;31040;51.622;10.420;2023-12-20T01:47:07;6.97;;;5.38;;
45296;SDS011;31040;51.622;10.420;2023-12-20T01:49:35;7.40;;;5.18;;
45296;SDS011;31040;51.622;10.420;2023-12-20T01:52:02;7.35;;;5.65;;
45296;SDS011;31040;51.622;10.420;2023-12-20T01:54:30;8.38;;;6.03;;
45296;SDS011;31040;51.622;10.420;2023-12-20T01:56:58;8.65;;;5.88;;
45296;SDS011;31040;51.622;10.420;2023-12-20T01:59:26;7.05;;;6.05;;
45296;SDS011;31040;51.622;10.420;2023-12-20T02:01:53;6.45;;;5.30;;
45296;SDS011;31040;51.622;10.420;2023-12-20T02:04:21;6.55;;;5.28;;
45296;SDS011;31040;51.622;10.420;2023-12-20T02:06:49;5.97;;;4.97;;
45296;SDS011;31040;51.622;10.420;2023-12-20T02:09:19;6.47;;;4.72;;
45296;SDS011;31040;51.622;10.420;2023-12-20T02:11:47;7.57;;;4.50;;
45296;SDS011;31040;51.622;10.420;2023-12-20T02:14:14;6.40;;;4.85;;
45296;SDS011;31040;51.622;10.420;2023-12-20T02:16:41;7.95;;;4.78;;
45296;SDS011;31040;51.622;10.420;2023-12-20T02:19:12;7.60;;;5.55;;
45296;SDS011;31040;51.622;10.420;2023-12-20T02:21:40;7.60;;;5.47;;
45296;SDS011;31040;51.622;10.420;2023-12-20T02:24:08;7.40;;;5.80;;
45296;SDS011;31040;51.622;10.420;2023-12-20T02:26:35;5.38;;;4.85;;
45296;SDS011;31040;51.622;10.420;2023-12-20T02:29:03;7.82;;;5.45;;
45296;SDS011;31040;51.622;10.420;2023-12-20T02:31:30;8.75;;;5.40;;
45296;SDS011;31040;51.622;10.420;2023-12-20T02:33:58;6.57;;;4.82;;
45296;SDS011;31040;51.622;10.420;2023-12-20T02:36:26;6.05;;;4.28;;
45296;SDS011;31040;51.622;10.420;2023-12-20T02:38:53;3.97;;;3.45;;
45296;SDS011;31040;51.622;10.420;2023-12-20T02:41:21;6.05;;;4.68;;
45296;SDS011;31040;51.622;10.420;2023-12-20T02:43:48;6.13;;;4.80;;
45296;SDS011;31040;51.622;10.420;2023-12-20T02:46:16;6.50;;;4.60;;
45296;SDS011;31040;51.622;10.420;2023-12-20T02:48:44;7.78;;;6.18;;
45296;SDS011;31040;51.622;10.420;2023-12-20T02:51:11;6.95;;;5.18;;
45296;SDS011;31040;51.622;10.420;2023-12-20T02:53:39;8.00;;;5.43;;
45296;SDS011;31040;51.622;10.420;2023-12-20T02:56:06;8.00;;;5.32;;
45296;SDS011;31040;51.622;10.420;2023-12-20T02:58:34;6.75;;;4.72;;
45296;SDS011;31040;51.622;10.420;2023-12-20T03:01:01;12.07;;;5.45;;
45296;SDS011;31040;51.622;10.420;2023-12-20T03:03:29;6.15;;;4.90;;
45296;SDS011;31040;51.622;10.420;2023-12-20T03:05:56;8.93;;;5.47;;
45296;SDS011;31040;51.622;10.420;2023-12-20T03:08:24;7.43;;;5.28;;
45296;SDS011;31040;51.622;10.420;2023-12-20T03:10:54;7.20;;;5.03;;
45296;SDS011;31040;51.622;10.420;2023-12-20T03:13:22;7.43;;;5.78;;
45296;SDS011;31040;51.622;10.420;2023-12-20T03:15:49;7.25;;;5.70;;
45296;SDS011;31040;51.622;10.420;2023-12-20T03:18:17;7.50;;;5.68;;
45296;SDS011;31040;51.622;10.420;2023-12-20T03:20:44;8.80;;;6.05;;
45296;SDS011;31040;51.622;10.420;2023-12-20T03:23:13;13.23;;;6.40;;
45296;SDS011;31040;51.622;10.420;2023-12-20T03:25:41;11.05;;;6.40;;
45296;SDS011;31040;51.622;10.420;2023-12-20T03:28:08;9.93;;;6.80;;
45296;SDS011;31040;51.622;10.420;2023-12-20T03:30:36;9.70;;;6.55;;
45296;SDS011;31040;51.622;10.420;2023-12-20T03:33:03;10.88;;;7.05;;
45296;SDS011;31040;51.622;10.420;2023-12-20T03:35:31;9.90;;;6.72;;
45296;SDS011;31040;51.622;10.420;2023-12-20T03:37:58;9.40;;;6.03;;
45296;SDS011;31040;51.622;10.420;2023-12-20T03:40:26;8.77;;;6.13;;
45296;SDS011;31040;51.622;10.420;2023-12-20T03:42:54;7.88;;;5.50;;
45296;SDS011;31040;51.622;10.420;2023-12-20T03:45:21;7.60;;;5.22;;
45296;SDS011;31040;51.622;10.420;2023-12-20T03:47:49;7.15;;;4.70;;
45296;SDS011;31040;51.622;10.420;2023-12-20T03:50:24;9.52;;;5.63;;
45296;SDS011;31040;51.622;10.420;2023-12-20T03:52:52;8.00;;;4.90;;
45296;SDS011;31040;51.622;10.420;2023-12-20T03:55:19;15.60;;;5.47;;
45296;SDS011;31040;51.622;10.420;2023-12-20T03:57:47;9.70;;;5.28;;
45296;SDS011;31040;51.622;10.420;2023-12-20T04:00:14;7.20;;;4.72;;
45296;SDS011;31040;51.622;10.420;2023-12-20T04:02:42;7.57;;;4.53;;
45296;SDS011;31040;51.622;10.420;2023-12-20T04:05:10;7.15;;;4.72;;
45296;SDS011;31040;51.622;10.420;2023-12-20T04:07:37;7.10;;;4.55;;
45296;SDS011;31040;51.622;10.420;2023-12-20T04:10:06;8.48;;;4.88;;
45296;SDS011;31040;51.622;10.420;2023-12-20T04:12:33;6.55;;;4.55;;
45296;SDS011;31040;51.622;10.420;2023-12-20T04:15:01;8.13;;;3.90;;
45296;SDS011;31040;51.622;10.420;2023-12-20T04:17:35;6.23;;;4.40;;
45296;SDS011;31040;51.622;10.420;2023-12-20T04:20:03;5.30;;;4.30;;
45296;SDS011;31040;51.622;10.420;2023-12-20T04:22:31;10.07;;;4.13;;
45296;SDS011;31040;51.622;10.420;2023-12-20T04:24:59;7.22;;;3.97;;
45296;SDS011;31040;51.622;10.420;2023-12-20T04:27:26;4.75;;;3.03;;
45296;SDS011;31040;51.622;10.420;2023-12-20T04:29:53;4.22;;;2.97;;
45296;SDS011;31040;51.622;10.420;2023-12-20T04:32:21;6.28;;;2.78;;
45296;SDS011;31040;51.622;10.420;2023-12-20T04:34:48;6.20;;;3.40;;
45296;SDS011;31040;51.622;10.420;2023-12-20T04:37:16;3.10;;;2.67;;
45296;SDS011;31040;51.622;10.420;2023-12-20T04:39:43;8.73;;;2.88;;
45296;SDS011;31040;51.622;10.420;2023-12-20T04:42:11;2.72;;;2.05;;
45296;SDS011;31040;51.622;10.420;2023-12-20T04:44:39;5.75;;;2.15;;
45296;SDS011;31040;51.622;10.420;2023-12-20T04:47:06;4.53;;;2.22;;
45296;SDS011;31040;51.622;10.420;2023-12-20T04:49:33;6.75;;;2.45;;
45296;SDS011;31040;51.622;10.420;2023-12-20T04:52:01;3.80;;;1.75;;
45296;SDS011;31040;51.622;10.420;2023-12-20T04:54:28;6.28;;;2.00;;
45296;SDS011;31040;51.622;10.420;2023-12-20T04:56:56;6.07;;;2.13;;
45296;SDS011;31040;51.622;10.420;2023-12-20T04:59:23;2.45;;;1.70;;
45296;SDS011;31040;51.622;10.420;2023-12-20T05:01:50;3.75;;;1.75;;
45296;SDS011;31040;51.622;10.420;2023-12-20T05:04:18;4.15;;;1.52;;
45296;SDS011;31040;51.622;10.420;2023-12-20T05:06:47;3.95;;;1.33;;
45296;SDS011;31040;51.622;10.420;2023-12-20T05:09:16;2.85;;;1.50;;
45296;SDS011;31040;51.622;10.420;2023-12-20T05:11:44;5.03;;;1.75;;
45296;SDS011;31040;51.622;10.420;2023-12-20T05:14:11;4.95;;;1.60;;
45296;SDS011;31040;51.622;10.420;2023-12-20T05:16:38;2.55;;;1.42;;
45296;SDS011;31040;51.622;10.420;2023-12-20T05:19:06;4.90;;;2.42;;
45296;SDS011;31040;51.622;10.420;2023-12-20T05:21:33;4.18;;;1.73;;
45296;SDS011;31040;51.622;10.420;2023-12-20T05:24:01;3.67;;;2.95;;
45296;SDS011;31040;51.622;10.420;2023-12-20T05:26:28;5.95;;;2.25;;
45296;SDS011;31040;51.622;10.420;2023-12-20T05:28:56;4.60;;;1.75;;
45296;SDS011;31040;51.622;10.420;2023-12-20T05:31:24;3.50;;;1.75;;
45296;SDS011;31040;51.622;10.420;2023-12-20T05:33:51;3.90;;;1.42;;
45296;SDS011;31040;51.622;10.420;2023-12-20T05:36:19;4.82;;;2.10;;
45296;SDS011;31040;51.622;10.420;2023-12-20T05:38:46;6.28;;;1.90;;
45296;SDS011;31040;51.622;10.420;2023-12-20T05:41:14;6.93;;;2.67;;
45296;SDS011;31040;51.622;10.420;2023-12-20T05:43:41;5.90;;;2.90;;
45296;SDS011;31040;51.622;10.420;2023-12-20T05:46:10;5.90;;;2.92;;
45296;SDS011;31040;51.622;10.420;2023-12-20T05:48:38;5.65;;;3.20;;
45296;SDS011;31040;51.622;10.420;2023-12-20T05:51:06;4.10;;;1.63;;
45296;SDS011;31040;51.622;10.420;2023-12-20T05:53:36;5.35;;;2.40;;
45296;SDS011;31040;51.622;10.420;2023-12-20T05:56:03;6.63;;;2.03;;
45296;SDS011;31040;51.622;10.420;2023-12-20T05:58:32;7.38;;;4.35;;
45296;SDS011;31040;51.622;10.420;2023-12-20T06:01:00;6.88;;;2.13;;
45296;SDS011;31040;51.622;10.420;2023-12-20T06:03:27;7.25;;;2.53;;
45296;SDS011;31040;51.622;10.420;2023-12-20T06:05:55;4.15;;;2.63;;
45296;SDS011;31040;51.622;10.420;2023-12-20T06:08:38;4.32;;;2.00;;
45296;SDS011;31040;51.622;10.420;2023-12-20T06:11:06;4.50;;;2.08;;
45296;SDS011;31040;51.622;10.420;2023-12-20T06:13:33;4.43;;;2.08;;
45296;SDS011;31040;51.622;10.420;2023-12-20T06:16:03;4.05;;;2.13;;
45296;SDS011;31040;51.622;10.420;2023-12-20T06:18:30;5.22;;;2.20;;
45296;SDS011;31040;51.622;10.420;2023-12-20T06:20:58;3.80;;;2.70;;
45296;SDS011;31040;51.622;10.420;2023-12-20T06:23:25;8.80;;;3.03;;
45296;SDS011;31040;51.622;10.420;2023-12-20T06:25:54;5.55;;;2.28;;
45296;SDS011;31040;51.622;10.420;2023-12-20T06:28:21;4.22;;;2.55;;
45296;SDS011;31040;51.622;10.420;2023-12-20T06:30:49;6.32;;;2.25;;
45296;SDS011;31040;51.622;10.420;2023-12-20T06:33:19;5.57;;;2.03;;
45296;SDS011;31040;51.622;10.420;2023-12-20T06:35:49;4.82;;;2.58;;
45296;SDS011;31040;51.622;10.420;2023-12-20T06:38:17;5.95;;;2.50;;
45296;SDS011;31040;51.622;10.420;2023-12-20T06:40:45;4.93;;;2.45;;
45296;SDS011;31040;51.622;10.420;2023-12-20T06:43:12;4.85;;;2.35;;
45296;SDS011;31040;51.622;10.420;2023-12-20T06:45:57;8.77;;;2.47;;
45296;SDS011;31040;51.622;10.420;2023-12-20T06:48:25;7.75;;;2.40;;
45296;SDS011;31040;51.622;10.420;2023-12-20T06:50:52;7.38;;;2.40;;
45296;SDS011;31040;51.622;10.420;2023-12-20T06:53:20;6.70;;;2.90;;
45296;SDS011;31040;51.622;10.420;2023-12-20T06:55:47;5.50;;;2.28;;
45296;SDS011;31040;51.622;10.420;2023-12-20T06:58:15;6.45;;;2.38;;
45296;SDS011;31040;51.622;10.420;2023-12-20T07:00:43;9.93;;;2.55;;
45296;SDS011;31040;51.622;10.420;2023-12-20T07:03:10;9.48;;;2.80;;
45296;SDS011;31040;51.622;10.420;2023-12-20T07:05:38;7.00;;;2.65;;
45296;SDS011;31040;51.622;10.420;2023-12-20T07:08:05;7.57;;;3.20;;
45296;SDS011;31040;51.622;10.420;2023-12-20T07:10:33;5.18;;;2.70;;
45296;SDS011;31040;51.622;10.420;2023-12-20T07:13:01;9.05;;;3.00;;
45296;SDS011;31040;51.622;10.420;2023-12-20T07:15:28;5.75;;;2.85;;
45296;SDS011;31040;51.622;10.420;2023-12-20T07:17:56;7.78;;;3.20;;
45296;SDS011;31040;51.622;10.420;2023-12-20T07:20:23;7.55;;;2.90;;
45296;SDS011;31040;51.622;10.420;2023-12-20T07:22:51;7.32;;;2.80;;
45296;SDS011;31040;51.622;10.420;2023-12-20T07:25:18;8.95;;;2.63;;
45296;SDS011;31040;51.622;10.420;2023-12-20T07:27:46;8.73;;;3.40;;
45296;SDS011;31040;51.622;10.420;2023-12-20T07:30:14;8.98;;;2.63;;
45296;SDS011;31040;51.622;10.420;2023-12-20T07:32:42;6.07;;;3.55;;
45296;SDS011;31040;51.622;10.420;2023-12-20T07:35:09;5.43;;;2.70;;
45296;SDS011;31040;51.622;10.420;2023-12-20T07:37:37;7.50;;;2.60;;
45296;SDS011;31040;51.622;10.420;2023-12-20T07:40:05;5.60;;;2.80;;
45296;SDS011;31040;51.622;10.420;2023-12-20T07:42:33;11.43;;;2.95;;
45296;SDS011;31040;51.622;10.420;2023-12-20T07:45:00;7.00;;;2.97;;
45296;SDS011;31040;51.622;10.420;2023-12-20T07:47:27;6.20;;;3.50;;
45296;SDS011;31040;51.622;10.420;2023-12-20T07:49:55;7.43;;;2.92;;
45296;SDS011;31040;51.622;10.420;2023-12-20T07:52:23;8.57;;;2.88;;
45296;SDS011;31040;51.622;10.420;2023-12-20T07:54:50;8.13;;;3.10;;
45296;SDS011;31040;51.622;10.420;2023-12-20T07:57:18;13.68;;;3.08;;
45296;SDS011;31040;51.622;10.420;2023-12-20T07:59:45;8.60;;;3.67;;
45296;SDS011;31040;51.622;10.420;2023-12-20T08:02:13;7.25;;;3.08;;
45296;SDS011;31040;51.622;10.420;2023-12-20T08:04:40;7.85;;;3.80;;
45296;SDS011;31040;51.622;10.420;2023-12-20T08:07:08;6.10;;;2.78;;
45296;SDS011;31040;51.622;10.420;2023-12-20T08:09:35;9.98;;;4.38;;
45296;SDS011;31040;51.622;10.420;2023-12-20T08:12:03;7.47;;;3.72;;
45296;SDS011;31040;51.622;10.420;2023-12-20T08:14:31;13.95;;;4.28;;
45296;SDS011;31040;51.622;10.420;2023-12-20T08:16:58;5.95;;;2.78;;
45296;SDS011;31040;51.622;10.420;2023-12-20T08:19:25;7.78;;;3.10;;
45296;SDS011;31040;51.622;10.420;2023-12-20T08:21:53;10.82;;;3.70;;
45296;SDS011;31040;51.622;10.420;2023-12-20T08:24:20;5.65;;;2.97;;
45296;SDS011;31040;51.622;10.420;2023-12-20T08:26:48;8.77;;;2.97;;
45296;SDS011;31040;51.622;10.420;2023-12-20T08:29:15;11.10;;;3.63;;
45296;SDS011;31040;51.622;10.420;2023-12-20T08:31:43;10.52;;;3.60;;
45296;SDS011;31040;51.622;10.420;2023-12-20T08:34:10;5.05;;;3.50;;
45296;SDS011;31040;51.622;10.420;2023-12-20T08:36:40;8.95;;;3.50;;
45296;SDS011;31040;51.622;10.420;2023-12-20T08:39:07;7.07;;;3.03;;
45296;SDS011;31040;51.622;10.420;2023-12-20T08:41:35;4.60;;;2.97;;
45296;SDS011;31040;51.622;10.420;2023-12-20T08:44:03;7.60;;;3.00;;
45296;SDS011;31040;51.622;10.420;2023-12-20T08:46:30;6.40;;;3.15;;
45296;SDS011;31040;51.622;10.420;2023-12-20T08:48:58;8.13;;;2.97;;
45296;SDS011;31040;51.622;10.420;2023-12-20T08:51:27;5.15;;;3.17;;
45296;SDS011;31040;51.622;10.420;2023-12-20T08:53:55;7.68;;;3.42;;
45296;SDS011;31040;51.622;10.420;2023-12-20T08:56:22;8.77;;;3.53;;
45296;SDS011;31040;51.622;10.420;2023-12-20T08:58:50;7.72;;;4.15;;
45296;SDS011;31040;51.622;10.420;2023-12-20T09:01:17;8.15;;;3.50;;
45296;SDS011;31040;51.622;10.420;2023-12-20T09:03:45;10.32;;;4.10;;
45296;SDS011;31040;51.622;10.420;2023-12-20T09:06:13;12.70;;;4.90;;
45296;SDS011;31040;51.622;10.420;2023-12-20T09:08:40;9.43;;;3.90;;
45296;SDS011;31040;51.622;10.420;2023-12-20T09:11:08;8.23;;;4.82;;
45296;SDS011;31040;51.622;10.420;2023-12-20T09:13:35;8.52;;;3.75;;
45296;SDS011;31040;51.622;10.420;2023-12-20T09:16:03;11.50;;;3.95;;
45296;SDS011;31040;51.622;10.420;2023-12-20T09:18:31;8.30;;;4.20;;
45296;SDS011;31040;51.622;10.420;2023-12-20T09:20:58;12.18;;;4.00;;
45296;SDS011;31040;51.622;10.420;2023-12-20T09:23:26;10.80;;;3.80;;
45296;SDS011;31040;51.622;10.420;2023-12-20T09:25:53;10.15;;;3.90;;
45296;SDS011;31040;51.622;10.420;2023-12-20T09:28:23;11.43;;;3.70;;
45296;SDS011;31040;51.622;10.420;2023-12-20T09:30:50;11.55;;;3.80;;
45296;SDS011;31040;51.622;10.420;2023-12-20T09:33:18;12.10;;;3.63;;
45296;SDS011;31040;51.622;10.420;2023-12-20T09:35:45;7.03;;;3.45;;
45296;SDS011;31040;51.622;10.420;2023-12-20T09:38:14;14.30;;;3.88;;
45296;SDS011;31040;51.622;10.420;2023-12-20T09:40:42;13.60;;;3.55;;
45296;SDS011;31040;51.622;10.420;2023-12-20T09:43:14;8.77;;;3.58;;
45296;SDS011;31040;51.622;10.420;2023-12-20T09:45:43;13.60;;;4.88;;
45296;SDS011;31040;51.622;10.420;2023-12-20T09:48:11;12.48;;;4.72;;
45296;SDS011;31040;51.622;10.420;2023-12-20T09:50:41;5.10;;;3.47;;
45296;SDS011;31040;51.622;10.420;2023-12-20T09:53:16;10.38;;;3.72;;
45296;SDS011;31040;51.622;10.420;2023-12-20T09:55:45;8.93;;;3.65;;
45296;SDS011;31040;51.622;10.420;2023-12-20T09:58:12;9.68;;;3.80;;
45296;SDS011;31040;51.622;10.420;2023-12-20T10:00:40;8.52;;;3.63;;
45296;SDS011;31040;51.622;10.420;2023-12-20T10:03:07;4.97;;;2.60;;
45296;SDS011;31040;51.622;10.420;2023-12-20T10:05:35;9.95;;;3.67;;
45296;SDS011;31040;51.622;10.420;2023-12-20T10:08:03;7.63;;;3.42;;
45296;SDS011;31040;51.622;10.420;2023-12-20T10:10:31;6.40;;;2.80;;
45296;SDS011;31040;51.622;10.420;2023-12-20T10:13:11;8.70;;;2.85;;
45296;SDS011;31040;51.622;10.420;2023-12-20T10:15:39;10.00;;;3.53;;
45296;SDS011;31040;51.622;10.420;2023-12-20T10:18:08;7.93;;;3.63;;
45296;SDS011;31040;51.622;10.420;2023-12-20T10:20:37;7.85;;;3.33;;
45296;SDS011;31040;51.622;10.420;2023-12-20T10:23:05;9.00;;;3.42;;
45296;SDS011;31040;51.622;10.420;2023-12-20T10:25:33;5.43;;;3.08;;
45296;SDS011;31040;51.622;10.420;2023-12-20T10:28:10;7.45;;;3.10;;
45296;SDS011;31040;51.622;10.420;2023-12-20T10:30:39;4.65;;;2.30;;
45296;SDS011;31040;51.622;10.420;2023-12-20T10:33:07;10.40;;;3.78;;
45296;SDS011;31040;51.622;10.420;2023-12-20T10:35:34;6.55;;;2.63;;
45296;SDS011;31040;51.622;10.420;2023-12-20T10:38:05;9.90;;;3.08;;
45296;SDS011;31040;51.622;10.420;2023-12-20T10:40:34;7.82;;;2.95;;
45296;SDS011;31040;51.622;10.420;2023-12-20T10:43:04;8.30;;;2.42;;
45296;SDS011;31040;51.622;10.420;2023-12-20T10:45:32;7.32;;;2.55;;
45296;SDS011;31040;51.622;10.420;2023-12-20T10:47:59;6.97;;;2.70;;
45296;SDS011;31040;51.622;10.420;2023-12-20T10:50:28;7.47;;;2.58;;
45296;SDS011;31040;51.622;10.420;2023-12-20T10:52:58;5.32;;;2.70;;
45296;SDS011;31040;51.622;10.420;2023-12-20T10:55:26;4.18;;;2.47;;
45296;SDS011;31040;51.622;10.420;2023-12-20T10:57:58;7.90;;;2.85;;
45296;SDS011;31040;51.622;10.420;2023-12-20T11:00:28;7.05;;;2.80;;
45296;SDS011;31040;51.622;10.420;2023-12-20T11:02:59;9.05;;;2.75;;
45296;SDS011;31040;51.622;10.420;2023-12-20T11:08:22;5.70;;;2.40;;
45296;SDS011;31040;51.622;10.420;2023-12-20T11:13:34;3.65;;;2.70;;
45296;SDS011;31040;51.622;10.420;2023-12-20T11:16:03;4.88;;;2.53;;
45296;SDS011;31040;51.622;10.420;2023-12-20T11:18:31;8.20;;;2.90;;
45296;SDS011;31040;51.622;10.420;2023-12-20T11:21:02;5.32;;;2.60;;
45296;SDS011;31040;51.622;10.420;2023-12-20T11:23:30;5.18;;;2.65;;
45296;SDS011;31040;51.622;10.420;2023-12-20T11:25:59;5.97;;;2.45;;
45296;SDS011;31040;51.622;10.420;2023-12-20T11:28:27;8.70;;;3.22;;
45296;SDS011;31040;51.622;10.420;2023-12-20T11:30:57;4.25;;;2.45;;
45296;SDS011;31040;51.622;10.420;2023-12-20T11:33:26;3.35;;;2.17;;
45296;SDS011;31040;51.622;10.420;2023-12-20T11:35:56;5.03;;;2.63;;
45296;SDS011;31040;51.622;10.420;2023-12-20T11:38:24;6.10;;;2.20;;
45296;SDS011;31040;51.622;10.420;2023-12-20T11:40:53;6.53;;;2.28;;
45296;SDS011;31040;51.622;10.420;2023-12-20T11:43:38;8.13;;;3.13;;
45296;SDS011;31040;51.622;10.420;2023-12-20T11:46:06;4.25;;;2.30;;
45296;SDS011;31040;51.622;10.420;2023-12-20T11:48:37;4.15;;;2.95;;
45296;SDS011;31040;51.622;10.420;2023-12-20T11:51:13;7.65;;;3.20;;
45296;SDS011;31040;51.622;10.420;2023-12-20T11:53:41;5.70;;;3.25;;
45296;SDS011;31040;51.622;10.420;2023-12-20T11:56:09;5.43;;;2.47;;
45296;SDS011;31040;51.622;10.420;2023-12-20T11:58:36;4.97;;;2.40;;
45296;SDS011;31040;51.622;10.420;2023-12-20T12:01:04;5.15;;;2.38;;
45296;SDS011;31040;51.622;10.420;2023-12-20T12:03:35;6.15;;;2.83;;
45296;SDS011;31040;51.622;10.420;2023-12-20T12:06:02;5.45;;;2.90;;
45296;SDS011;31040;51.622;10.420;2023-12-20T12:08:31;5.45;;;2.70;;
45296;SDS011;31040;51.622;10.420;2023-12-20T12:10:59;5.95;;;2.55;;
45296;SDS011;31040;51.622;10.420;2023-12-20T12:13:26;2.92;;;2.63;;
45296;SDS011;31040;51.622;10.420;2023-12-20T12:15:54;6.15;;;2.80;;
45296;SDS011;31040;51.622;10.420;2023-12-20T12:18:21;6.18;;;2.85;;
45296;SDS011;31040;51.622;10.420;2023-12-20T12:20:49;6.65;;;2.63;;
45296;SDS011;31040;51.622;10.420;2023-12-20T12:23:22;7.15;;;2.80;;
45296;SDS011;31040;51.622;10.420;2023-12-20T12:25:53;5.88;;;2.80;;
45296;SDS011;31040;51.622;10.420;2023-12-20T12:28:21;4.13;;;2.63;;
45296;SDS011;31040;51.622;10.420;2023-12-20T12:30:58;5.88;;;3.03;;
45296;SDS011;31040;51.622;10.420;2023-12-20T12:33:26;6.60;;;2.65;;
45296;SDS011;31040;51.622;10.420;2023-12-20T12:35:54;10.43;;;3.70;;
45296;SDS011;31040;51.622;10.420;2023-12-20T12:38:22;6.95;;;3.20;;
45296;SDS011;31040;51.622;10.420;2023-12-20T12:40:51;7.97;;;3.58;;
45296;SDS011;31040;51.622;10.420;2023-12-20T12:43:20;6.45;;;3.35;;
45296;SDS011;31040;51.622;10.420;2023-12-20T12:45:49;6.50;;;3.60;;
45296;SDS011;31040;51.622;10.420;2023-12-20T12:48:17;5.78;;;3.15;;
45296;SDS011;31040;51.622;10.420;2023-12-20T12:50:47;5.72;;;2.92;;
45296;SDS011;31040;51.622;10.420;2023-12-20T12:53:16;9.07;;;4.18;;
45296;SDS011;31040;51.622;10.420;2023-12-20T12:55:43;7.82;;;3.17;;
45296;SDS011;31040;51.622;10.420;2023-12-20T12:58:11;9.18;;;3.20;;
45296;SDS011;31040;51.622;10.420;2023-12-20T13:00:38;7.18;;;3.40;;
45296;SDS011;31040;51.622;10.420;2023-12-20T13:03:06;7.07;;;3.88;;
45296;SDS011;31040;51.622;10.420;2023-12-20T13:05:33;5.55;;;2.85;;
45296;SDS011;31040;51.622;10.420;2023-12-20T13:08:06;5.88;;;3.03;;
45296;SDS011;31040;51.622;10.420;2023-12-20T13:10:33;7.93;;;3.25;;
45296;SDS011;31040;51.622;10.420;2023-12-20T13:13:01;5.85;;;3.70;;
45296;SDS011;31040;51.622;10.420;2023-12-20T13:15:29;5.97;;;3.03;;
45296;SDS011;31040;51.622;10.420;2023-12-20T13:17:57;4.45;;;3.22;;
45296;SDS011;31040;51.622;10.420;2023-12-20T13:20:24;8.93;;;3.63;;
45296;SDS011;31040;51.622;10.420;2023-12-20T13:22:52;7.32;;;3.70;;
45296;SDS011;31040;51.622;10.420;2023-12-20T13:25:19;7.43;;;3.92;;
45296;SDS011;31040;51.622;10.420;2023-12-20T13:27:46;8.80;;;2.95;;
45296;SDS011;31040;51.622;10.420;2023-12-20T13:30:15;9.48;;;3.78;;
45296;SDS011;31040;51.622;10.420;2023-12-20T13:32:43;6.90;;;3.47;;
45296;SDS011;31040;51.622;10.420;2023-12-20T13:35:11;12.23;;;3.60;;
45296;SDS011;31040;51.622;10.420;2023-12-20T13:37:39;5.32;;;3.20;;
45296;SDS011;31040;51.622;10.420;2023-12-20T13:40:07;6.53;;;3.58;;
45296;SDS011;31040;51.622;10.420;2023-12-20T13:42:34;4.97;;;3.00;;
45296;SDS011;31040;51.622;10.420;2023-12-20T13:45:02;5.00;;;3.28;;
45296;SDS011;31040;51.622;10.420;2023-12-20T13:47:31;5.88;;;3.20;;
45296;SDS011;31040;51.622;10.420;2023-12-20T13:49:59;6.13;;;3.42;;
45296;SDS011;31040;51.622;10.420;2023-12-20T13:52:26;8.68;;;3.42;;
45296;SDS011;31040;51.622;10.420;2023-12-20T13:54:57;8.13;;;3.63;;
45296;SDS011;31040;51.622;10.420;2023-12-20T13:57:27;6.32;;;3.85;;
45296;SDS011;31040;51.622;10.420;2023-12-20T14:00:03;9.27;;;4.00;;
45296;SDS011;31040;51.622;10.420;2023-12-20T14:02:31;8.95;;;3.50;;
45296;SDS011;31040;51.622;10.420;2023-12-20T14:04:58;7.70;;;4.75;;
45296;SDS011;31040;51.622;10.420;2023-12-20T14:07:26;4.78;;;3.63;;
45296;SDS011;31040;51.622;10.420;2023-12-20T14:09:55;8.43;;;3.90;;
45296;SDS011;31040;51.622;10.420;2023-12-20T14:12:23;11.77;;;4.07;;
45296;SDS011;31040;51.622;10.420;2023-12-20T14:14:50;4.88;;;3.83;;
45296;SDS011;31040;51.622;10.420;2023-12-20T14:17:18;6.85;;;3.88;;
45296;SDS011;31040;51.622;10.420;2023-12-20T14:19:47;7.32;;;4.07;;
45296;SDS011;31040;51.622;10.420;2023-12-20T14:22:14;7.70;;;3.97;;
45296;SDS011;31040;51.622;10.420;2023-12-20T14:24:43;6.20;;;3.63;;
45296;SDS011;31040;51.622;10.420;2023-12-20T14:27:11;6.05;;;4.30;;
45296;SDS011;31040;51.622;10.420;2023-12-20T14:29:40;5.32;;;3.67;;
45296;SDS011;31040;51.622;10.420;2023-12-20T14:32:07;5.57;;;3.88;;
45296;SDS011;31040;51.622;10.420;2023-12-20T14:34:34;9.60;;;4.20;;
45296;SDS011;31040;51.622;10.420;2023-12-20T14:37:03;8.18;;;4.30;;
45296;SDS011;31040;51.622;10.420;2023-12-20T14:39:30;9.18;;;4.00;;
45296;SDS011;31040;51.622;10.420;2023-12-20T14:41:58;5.95;;;3.78;;
45296;SDS011;31040;51.622;10.420;2023-12-20T14:44:25;5.60;;;4.30;;